createdAt,value
2022-09-16T00:00:33.241Z,19.10
2022-09-16T00:03:00.315Z,19.00
2022-09-16T00:05:27.424Z,19.10
2022-09-16T00:07:55.677Z,19.10
2022-09-16T00:10:23.530Z,19.10
2022-09-16T00:12:50.768Z,19.10
2022-09-16T00:15:18.416Z,19.10
2022-09-16T00:17:45.305Z,19.10
2022-09-16T00:20:12.444Z,19.10
2022-09-16T00:22:39.396Z,19.00
2022-09-16T00:25:06.897Z,19.00
2022-09-16T00:27:33.795Z,19.00
2022-09-16T00:30:01.421Z,19.00
2022-09-16T00:32:28.487Z,19.10
2022-09-16T00:34:55.431Z,19.20
2022-09-16T00:37:22.466Z,19.20
2022-09-16T00:39:50.267Z,19.10
2022-09-16T00:42:18.607Z,19.10
2022-09-16T00:45:02.318Z,19.10
2022-09-16T00:47:40.908Z,19.20
2022-09-16T00:50:32.228Z,19.10
2022-09-16T00:53:00.802Z,19.00
2022-09-16T00:55:31.552Z,19.00
2022-09-16T00:58:06.890Z,19.00
2022-09-16T01:00:33.842Z,19.00
2022-09-16T01:03:00.878Z,19.00
2022-09-16T01:05:28.443Z,19.00
2022-09-16T01:07:55.641Z,18.90
2022-09-16T01:10:26.800Z,18.90
2022-09-16T01:13:00.698Z,19.00
2022-09-16T01:15:34.165Z,18.90
2022-09-16T01:18:12.794Z,18.90
2022-09-16T01:20:54.641Z,18.90
2022-09-16T01:23:36.275Z,18.80
2022-09-16T01:27:00.560Z,18.80
2022-09-16T01:29:56.520Z,18.80
2022-09-16T01:32:48.193Z,18.80
2022-09-16T01:35:24.661Z,18.70
2022-09-16T01:37:51.506Z,18.70
2022-09-16T01:40:30.802Z,18.70
2022-09-16T01:43:18.982Z,18.70
2022-09-16T01:45:55.584Z,18.70
2022-09-16T01:48:37.474Z,18.60
2022-09-16T01:51:10.245Z,18.60
2022-09-16T01:53:42.378Z,18.60
2022-09-16T01:56:16.673Z,18.60
2022-09-16T01:59:02.306Z,18.60
2022-09-16T02:01:55.348Z,18.60
2022-09-16T02:04:24.086Z,18.60
2022-09-16T02:06:54.174Z,18.60
2022-09-16T02:09:29.953Z,18.60
2022-09-16T02:12:05.634Z,18.60
2022-09-16T02:14:36.123Z,18.60
2022-09-16T02:17:08.362Z,18.60
2022-09-16T02:19:41.478Z,18.60
2022-09-16T02:22:13.223Z,18.70
2022-09-16T02:24:43.448Z,18.80
2022-09-16T02:27:15.533Z,18.80
2022-09-16T02:29:49.284Z,18.80
2022-09-16T02:32:17.359Z,18.90
2022-09-16T02:34:47.403Z,18.80
2022-09-16T02:37:42.735Z,18.80
2022-09-16T02:40:30.175Z,18.80
2022-09-16T02:42:58.589Z,18.70
2022-09-16T02:45:45.705Z,18.80
2022-09-16T02:48:47.098Z,18.60
2022-09-16T02:51:28.303Z,18.60
2022-09-16T02:54:16.088Z,18.50
2022-09-16T02:56:43.190Z,18.50
2022-09-16T02:59:12.925Z,18.50
2022-09-16T03:01:43.363Z,18.40
2022-09-16T03:04:12.016Z,18.30
2022-09-16T03:06:39.450Z,18.30
2022-09-16T03:09:09.809Z,18.30
2022-09-16T03:12:07.633Z,18.30
2022-09-16T03:14:56.923Z,18.30
2022-09-16T03:17:23.799Z,18.20
2022-09-16T03:20:07.750Z,18.20
2022-09-16T03:22:58.661Z,18.10
2022-09-16T03:25:48.065Z,18.20
2022-09-16T03:28:20.018Z,18.20
2022-09-16T03:31:09.629Z,18.20
2022-09-16T03:34:08.002Z,18.20
2022-09-16T03:36:46.358Z,18.20
2022-09-16T03:39:14.571Z,18.30
2022-09-16T03:41:41.695Z,18.20
2022-09-16T03:44:08.618Z,18.30
2022-09-16T03:46:35.619Z,18.40
2022-09-16T03:49:02.846Z,18.40
2022-09-16T03:51:29.823Z,18.40
2022-09-16T03:53:56.782Z,18.40
2022-09-16T03:56:24.645Z,18.30
2022-09-16T03:58:52.035Z,18.30
2022-09-16T04:01:19.094Z,18.30
2022-09-16T04:03:46.109Z,18.20
2022-09-16T04:06:13.007Z,18.20
2022-09-16T04:08:39.945Z,18.20
2022-09-16T04:11:07.492Z,18.20
2022-09-16T04:13:35.699Z,18.30
2022-09-16T04:16:04.542Z,18.30
2022-09-16T04:18:32.662Z,18.30
2022-09-16T04:21:00.981Z,18.40
2022-09-16T04:23:28.631Z,18.30
2022-09-16T04:26:04.957Z,18.20
2022-09-16T04:28:34.866Z,18.20
2022-09-16T04:31:07.096Z,18.20
2022-09-16T04:33:35.844Z,18.30
2022-09-16T04:36:04.760Z,18.30
2022-09-16T04:38:31.822Z,18.30
2022-09-16T04:41:07.074Z,18.20
2022-09-16T04:43:34.073Z,18.20
2022-09-16T04:46:01.892Z,18.30
2022-09-16T04:48:29.391Z,18.30
2022-09-16T04:51:03.922Z,18.30
2022-09-16T04:53:30.957Z,18.30
2022-09-16T04:56:23.708Z,18.30
2022-09-16T04:58:53.262Z,18.30
2022-09-16T05:01:27.901Z,18.20
2022-09-16T05:03:58.279Z,18.20
2022-09-16T05:06:27.711Z,18.20
2022-09-16T05:08:56.662Z,18.20
2022-09-16T05:11:28.876Z,18.20
2022-09-16T05:13:59.076Z,18.30
2022-09-16T05:16:26.084Z,18.30
2022-09-16T05:18:55.743Z,18.30
2022-09-16T05:21:24.852Z,18.40
2022-09-16T05:23:52.245Z,18.40
2022-09-16T05:26:22.529Z,18.40
2022-09-16T05:28:52.765Z,18.50
2022-09-16T05:31:25.719Z,18.50
2022-09-16T05:34:19.428Z,18.60
2022-09-16T05:36:48.051Z,18.50
2022-09-16T05:39:26.241Z,18.60
2022-09-16T05:41:59.233Z,18.80
2022-09-16T05:44:27.261Z,18.90
2022-09-16T05:46:54.728Z,19.00
2022-09-16T05:49:21.924Z,19.10
2022-09-16T05:51:50.334Z,19.00
2022-09-16T05:54:20.537Z,19.00
2022-09-16T05:56:48.331Z,19.00
2022-09-16T05:59:16.562Z,19.00
2022-09-16T06:01:44.195Z,19.20
2022-09-16T06:04:13.634Z,19.10
2022-09-16T06:06:45.466Z,19.00
2022-09-16T06:09:15.460Z,19.00
2022-09-16T06:11:45.269Z,19.00
2022-09-16T06:14:13.279Z,19.00
2022-09-16T06:16:40.818Z,18.90
2022-09-16T06:19:11.351Z,18.90
2022-09-16T06:21:38.644Z,19.00
2022-09-16T06:24:08.997Z,19.20
2022-09-16T06:26:38.268Z,19.40
2022-09-16T06:29:06.376Z,19.60
2022-09-16T06:31:34.618Z,19.90
2022-09-16T06:34:01.639Z,20.00
2022-09-16T06:36:31.431Z,20.10
2022-09-16T06:38:58.654Z,20.20
2022-09-16T06:41:26.064Z,20.30
2022-09-16T06:43:53.481Z,20.40
2022-09-16T06:46:24.211Z,20.50
2022-09-16T06:48:53.771Z,20.50
2022-09-16T06:51:29.030Z,20.60
2022-09-16T06:54:00.953Z,20.60
2022-09-16T06:56:27.893Z,20.70
2022-09-16T06:58:56.013Z,20.70
2022-09-16T07:01:28.762Z,20.60
2022-09-16T07:03:58.532Z,20.50
2022-09-16T07:09:17.238Z,20.40
2022-09-16T07:11:44.491Z,20.50
2022-09-16T07:14:11.543Z,20.60
2022-09-16T07:16:38.519Z,20.60
2022-09-16T07:19:06.053Z,20.90
2022-09-16T07:21:33.146Z,21.30
2022-09-16T07:24:01.934Z,21.50
2022-09-16T07:26:31.410Z,21.30
2022-09-16T07:29:03.911Z,21.50
2022-09-16T07:31:32.203Z,21.60
2022-09-16T07:34:04.399Z,21.20
2022-09-16T07:36:44.968Z,21.60
2022-09-16T07:39:13.902Z,22.10
2022-09-16T07:41:44.354Z,22.20
2022-09-16T07:44:15.762Z,22.30
2022-09-16T07:46:43.077Z,22.40
2022-09-16T07:49:13.499Z,22.20
2022-09-16T07:51:40.477Z,21.70
2022-09-16T07:54:11.750Z,21.80
2022-09-16T07:56:39.807Z,21.60
2022-09-16T07:59:14.243Z,21.70
2022-09-16T08:01:44.483Z,22.00
2022-09-16T08:04:12.231Z,22.00
2022-09-16T08:06:40.099Z,22.10
2022-09-16T08:09:15.541Z,22.40
2022-09-16T08:11:53.902Z,23.00
2022-09-16T08:14:20.826Z,23.10
2022-09-16T08:16:51.449Z,23.20
2022-09-16T08:19:20.009Z,23.10
2022-09-16T08:21:46.967Z,22.90
2022-09-16T08:24:13.943Z,22.90
2022-09-16T08:26:41.153Z,22.90
2022-09-16T08:29:09.779Z,23.10
2022-09-16T08:31:38.306Z,23.30
2022-09-16T08:34:05.684Z,23.20
2022-09-16T08:36:35.581Z,23.00
2022-09-16T08:39:02.500Z,23.00
2022-09-16T08:41:53.976Z,22.90
2022-09-16T08:44:23.594Z,23.00
2022-09-16T08:47:09.770Z,22.90
2022-09-16T08:49:44.165Z,23.00
2022-09-16T08:52:22.553Z,22.70
2022-09-16T08:54:53.525Z,22.50
2022-09-16T08:57:27.630Z,22.50
2022-09-16T09:00:16.682Z,22.70
2022-09-16T09:02:44.257Z,23.30
2022-09-16T09:05:26.430Z,23.10
2022-09-16T09:08:26.834Z,22.80
2022-09-16T09:11:06.127Z,22.70
2022-09-16T09:14:20.371Z,22.90
2022-09-16T09:17:14.294Z,23.10
2022-09-16T09:19:53.270Z,23.50
2022-09-16T09:22:36.761Z,23.30
2022-09-16T09:25:43.073Z,23.10
2022-09-16T09:28:17.450Z,22.90
2022-09-16T09:30:57.119Z,22.90
2022-09-16T09:33:50.295Z,23.20
2022-09-16T09:36:42.744Z,23.20
2022-09-16T09:39:24.566Z,23.40
2022-09-16T09:42:11.495Z,23.70
2022-09-16T09:45:02.225Z,23.90
2022-09-16T09:48:21.916Z,23.90
2022-09-16T09:50:50.547Z,23.80
2022-09-16T09:53:38.200Z,23.80
2022-09-16T09:56:31.733Z,23.50
2022-09-16T09:59:13.638Z,23.70
2022-09-16T10:01:40.586Z,23.80
2022-09-16T10:04:15.650Z,23.80
2022-09-16T10:06:44.044Z,23.80
2022-09-16T10:09:14.475Z,23.60
2022-09-16T10:11:55.855Z,23.30
2022-09-16T10:14:34.854Z,23.80
2022-09-16T10:17:04.799Z,23.90
2022-09-16T10:19:38.858Z,24.20
2022-09-16T10:22:12.356Z,24.20
2022-09-16T10:24:42.147Z,24.40
2022-09-16T10:27:25.832Z,24.30
2022-09-16T10:30:15.254Z,24.40
2022-09-16T10:33:01.536Z,24.60
2022-09-16T10:35:35.267Z,24.70
2022-09-16T10:38:06.721Z,24.50
2022-09-16T10:40:34.399Z,24.80
2022-09-16T10:43:13.725Z,24.90
2022-09-16T10:45:52.759Z,25.50
2022-09-16T10:48:23.654Z,25.60
2022-09-16T10:51:05.071Z,25.80
2022-09-16T10:53:39.681Z,25.60
2022-09-16T10:56:49.541Z,25.50
2022-09-16T10:59:16.492Z,25.80
2022-09-16T11:02:09.081Z,25.50
2022-09-16T11:05:14.083Z,25.60
2022-09-16T11:07:55.825Z,25.50
2022-09-16T11:10:34.665Z,25.10
2022-09-16T11:13:40.016Z,24.90
2022-09-16T11:16:19.692Z,24.60
2022-09-16T11:18:52.862Z,24.70
2022-09-16T11:21:47.062Z,24.50
2022-09-16T11:24:29.307Z,24.60
2022-09-16T11:27:23.481Z,24.50
2022-09-16T11:30:10.453Z,24.50
2022-09-16T11:33:05.259Z,24.60
2022-09-16T11:35:41.343Z,24.60
2022-09-16T11:38:18.147Z,24.90
2022-09-16T11:41:13.199Z,25.00
2022-09-16T11:44:04.615Z,24.90
2022-09-16T11:46:59.135Z,24.50
2022-09-16T11:49:37.707Z,24.90
2022-09-16T11:52:49.669Z,25.10
2022-09-16T11:55:23.898Z,25.70
2022-09-16T11:58:02.142Z,25.30
2022-09-16T12:00:31.575Z,25.30
2022-09-16T12:03:23.079Z,25.50
2022-09-16T12:05:54.739Z,25.70
2022-09-16T12:08:24.541Z,25.60
2022-09-16T12:11:33.294Z,25.70
2022-09-16T12:14:38.132Z,25.00
2022-09-16T12:17:25.788Z,24.90
2022-09-16T12:20:03.873Z,24.90
2022-09-16T12:22:42.462Z,25.20
2022-09-16T12:25:23.110Z,25.30
2022-09-16T12:27:54.282Z,25.30
2022-09-16T12:30:26.341Z,25.20
2022-09-16T12:33:21.233Z,24.80
2022-09-16T12:36:02.350Z,24.40
2022-09-16T12:38:29.496Z,24.00
2022-09-16T12:41:44.340Z,23.90
2022-09-16T12:44:34.324Z,24.00
2022-09-16T12:47:23.210Z,24.10
2022-09-16T12:50:28.570Z,24.00
2022-09-16T12:53:19.881Z,24.10
2022-09-16T12:55:56.143Z,23.80
2022-09-16T12:58:32.398Z,23.70
2022-09-16T13:01:13.576Z,23.60
2022-09-16T13:03:46.216Z,23.40
2022-09-16T13:06:28.449Z,23.30
2022-09-16T13:08:56.682Z,22.90
2022-09-16T13:14:27.762Z,22.10
2022-09-16T13:16:57.324Z,21.80
2022-09-16T13:19:27.033Z,21.70
2022-09-16T13:22:31.669Z,21.60
2022-09-16T13:25:11.064Z,21.40
2022-09-16T13:27:40.343Z,21.40
2022-09-16T13:30:12.987Z,21.20
2022-09-16T13:32:58.648Z,21.10
2022-09-16T13:35:38.229Z,21.10
2022-09-16T13:38:19.387Z,21.00
2022-09-16T13:41:00.113Z,21.10
2022-09-16T13:43:29.809Z,21.30
2022-09-16T13:46:18.666Z,21.40
2022-09-16T13:48:54.135Z,21.30
2022-09-16T13:51:22.925Z,21.40
2022-09-16T13:53:57.866Z,21.40
2022-09-16T13:57:18.847Z,21.40
2022-09-16T14:02:56.864Z,21.60
2022-09-16T14:05:24.756Z,21.50
2022-09-16T14:08:13.408Z,21.40
2022-09-16T14:10:56.465Z,21.30
2022-09-16T14:13:24.920Z,21.20
2022-09-16T14:15:56.426Z,21.10
2022-09-16T14:18:27.620Z,20.70
2022-09-16T14:21:01.494Z,20.50
2022-09-16T14:23:29.509Z,20.50
2022-09-16T14:25:56.580Z,20.70
2022-09-16T14:28:26.350Z,20.70
2022-09-16T14:30:59.299Z,20.80
2022-09-16T14:34:01.835Z,20.90
2022-09-16T14:36:32.194Z,21.00
2022-09-16T14:39:08.486Z,21.10
2022-09-16T14:41:40.573Z,21.20
2022-09-16T14:44:43.000Z,21.10
2022-09-16T14:47:29.649Z,21.10
2022-09-16T14:50:14.057Z,21.10
2022-09-16T14:52:41.391Z,21.00
2022-09-16T14:55:23.222Z,21.10
2022-09-16T14:57:50.651Z,21.10
2022-09-16T15:00:19.421Z,21.00
2022-09-16T15:03:07.877Z,20.80
2022-09-16T15:05:37.582Z,20.40
2022-09-16T15:08:15.464Z,20.20
2022-09-16T15:10:52.424Z,20.10
2022-09-16T15:13:23.164Z,19.90
2022-09-16T15:15:54.733Z,19.60
2022-09-16T15:18:24.453Z,19.40
2022-09-16T15:20:57.664Z,19.40
2022-09-16T15:23:27.165Z,19.40
2022-09-16T15:25:57.559Z,19.10
2022-09-16T15:28:24.840Z,19.10
2022-09-16T15:30:56.529Z,19.00
2022-09-16T15:33:29.937Z,18.80
2022-09-16T15:36:00.111Z,18.80
2022-09-16T15:38:27.530Z,18.60
2022-09-16T15:41:03.156Z,18.50
2022-09-16T15:43:36.357Z,18.30
2022-09-16T15:46:11.447Z,18.10
2022-09-16T15:48:48.879Z,18.00
2022-09-16T15:51:38.233Z,18.00
2022-09-16T15:54:31.883Z,18.10
2022-09-16T15:57:04.541Z,18.00
2022-09-16T16:00:05.976Z,18.10
2022-09-16T16:02:53.415Z,18.10
2022-09-16T16:05:24.206Z,18.00
2022-09-16T16:07:52.286Z,18.00
2022-09-16T16:10:21.105Z,18.00
2022-09-16T16:12:50.861Z,17.90
2022-09-16T16:15:39.045Z,17.90
2022-09-16T16:18:08.074Z,17.90
2022-09-16T16:20:37.402Z,17.90
2022-09-16T16:23:04.343Z,17.90
2022-09-16T16:25:31.374Z,17.90
2022-09-16T16:27:58.319Z,18.00
2022-09-16T16:30:25.253Z,17.80
2022-09-16T16:32:52.122Z,17.80
2022-09-16T16:35:18.974Z,17.90
2022-09-16T16:37:47.480Z,18.10
2022-09-16T16:40:15.726Z,17.90
2022-09-16T16:42:43.960Z,17.80
2022-09-16T16:45:14.436Z,17.60
2022-09-16T16:47:42.496Z,17.60
2022-09-16T16:50:09.995Z,17.70
2022-09-16T16:52:37.269Z,17.70
2022-09-16T16:55:04.841Z,17.70
2022-09-16T16:57:32.303Z,17.70
2022-09-16T16:59:59.233Z,17.70
2022-09-16T17:02:26.406Z,17.70
2022-09-16T17:04:53.330Z,17.50
2022-09-16T17:07:28.224Z,17.30
2022-09-16T17:09:59.614Z,17.00
2022-09-16T17:12:27.433Z,16.80
2022-09-16T17:14:54.554Z,16.80
2022-09-16T17:17:21.481Z,16.70
2022-09-16T17:19:48.383Z,16.70
2022-09-16T17:22:16.014Z,16.80
2022-09-16T17:24:42.929Z,16.80
2022-09-16T17:27:09.818Z,16.70
2022-09-16T17:29:36.712Z,16.70
2022-09-16T17:32:03.685Z,16.70
2022-09-16T17:34:31.273Z,16.70
2022-09-16T17:36:58.752Z,16.90
2022-09-16T17:39:25.998Z,16.90
2022-09-16T17:41:54.591Z,16.90
2022-09-16T17:44:21.578Z,16.80
2022-09-16T17:46:48.520Z,16.80
2022-09-16T17:49:20.229Z,16.70
2022-09-16T17:51:47.589Z,16.60
2022-09-16T17:54:14.822Z,16.60
2022-09-16T17:56:44.967Z,16.60
2022-09-16T17:59:13.298Z,16.60
2022-09-16T18:01:40.735Z,16.60
2022-09-16T18:04:08.054Z,16.60
2022-09-16T18:06:41.859Z,16.70
2022-09-16T18:09:08.838Z,16.60
2022-09-16T18:11:37.430Z,16.60
2022-09-16T18:14:06.822Z,16.50
2022-09-16T18:16:33.907Z,16.40
2022-09-16T18:19:02.324Z,16.40
2022-09-16T18:21:30.375Z,16.40
2022-09-16T18:24:02.776Z,16.40
2022-09-16T18:26:30.847Z,16.60
2022-09-16T18:29:09.568Z,16.60
2022-09-16T18:31:38.078Z,16.70
2022-09-16T18:34:05.927Z,16.70
2022-09-16T18:36:35.168Z,16.80
2022-09-16T18:39:02.549Z,16.80
2022-09-16T18:41:36.203Z,16.80
2022-09-16T18:44:11.265Z,16.90
2022-09-16T18:46:39.111Z,16.80
2022-09-16T18:49:07.042Z,16.80
2022-09-16T18:51:33.933Z,16.90
2022-09-16T18:54:03.319Z,16.90
2022-09-16T18:56:32.973Z,16.90
2022-09-16T18:59:23.346Z,16.80
2022-09-16T19:01:53.178Z,16.80
2022-09-16T19:04:25.438Z,16.90
2022-09-16T19:06:55.232Z,16.80
2022-09-16T19:09:24.050Z,16.90
2022-09-16T19:11:52.897Z,16.80
2022-09-16T19:14:22.516Z,16.80
2022-09-16T19:16:49.694Z,16.70
2022-09-16T19:19:16.886Z,16.70
2022-09-16T19:21:44.241Z,16.80
2022-09-16T19:24:25.350Z,16.60
2022-09-16T19:26:54.914Z,16.60
2022-09-16T19:29:22.727Z,16.50
2022-09-16T19:31:54.792Z,16.50
2022-09-16T19:34:22.437Z,16.50
2022-09-16T19:36:50.277Z,16.50
2022-09-16T19:39:17.331Z,16.40
2022-09-16T19:41:45.186Z,16.30
2022-09-16T19:44:14.974Z,16.20
2022-09-16T19:46:42.938Z,16.30
2022-09-16T19:49:16.215Z,16.20
2022-09-16T19:51:44.091Z,16.20
2022-09-16T19:54:11.565Z,16.20
2022-09-16T19:56:38.600Z,16.20
2022-09-16T19:59:06.068Z,16.20
2022-09-16T20:01:34.818Z,16.20
2022-09-16T20:04:03.917Z,16.20
2022-09-16T20:06:38.158Z,16.20
2022-09-16T20:09:14.334Z,16.20
2022-09-16T20:11:44.185Z,16.20
2022-09-16T20:14:20.174Z,16.20
2022-09-16T20:16:48.261Z,16.40
2022-09-16T20:19:18.530Z,16.40
2022-09-16T20:21:46.023Z,16.40
2022-09-16T20:24:19.382Z,16.30
2022-09-16T20:26:51.096Z,16.30
2022-09-16T20:29:19.215Z,16.30
2022-09-16T20:31:48.034Z,16.40
2022-09-16T20:34:16.597Z,16.40
2022-09-16T20:36:45.521Z,16.40
2022-09-16T20:39:13.460Z,16.50
2022-09-16T20:41:41.290Z,16.40
2022-09-16T20:44:11.601Z,16.40
2022-09-16T20:46:41.498Z,16.40
2022-09-16T20:49:14.051Z,16.30
2022-09-16T20:51:41.071Z,16.40
2022-09-16T20:54:10.632Z,16.50
2022-09-16T20:56:40.771Z,16.40
2022-09-16T20:59:13.664Z,16.40
2022-09-16T21:01:41.964Z,16.40
2022-09-16T21:04:13.633Z,16.40
2022-09-16T21:06:40.837Z,16.10
2022-09-16T21:09:11.659Z,16.10
2022-09-16T21:11:44.818Z,16.00
2022-09-16T21:14:15.351Z,15.90
2022-09-16T21:16:43.717Z,16.00
2022-09-16T21:19:12.803Z,16.00
2022-09-16T21:21:43.488Z,16.00
2022-09-16T21:24:10.785Z,16.00
2022-09-16T21:26:40.247Z,15.90
2022-09-16T21:29:21.241Z,15.70
2022-09-16T21:31:48.990Z,15.90
2022-09-16T21:34:19.401Z,15.80
2022-09-16T21:36:47.220Z,15.80
2022-09-16T21:39:16.253Z,15.80
2022-09-16T21:41:44.774Z,15.80
2022-09-16T21:44:12.253Z,15.90
2022-09-16T21:46:43.121Z,15.80
2022-09-16T21:49:29.442Z,15.80
2022-09-16T21:51:58.274Z,15.90
2022-09-16T21:54:28.297Z,15.80
2022-09-16T21:56:55.180Z,15.70
2022-09-16T21:59:22.261Z,15.50
2022-09-16T22:01:50.708Z,15.50
2022-09-16T22:04:21.056Z,15.40
2022-09-16T22:06:50.369Z,15.30
2022-09-16T22:09:17.374Z,15.20
2022-09-16T22:11:44.393Z,15.40
2022-09-16T22:14:12.182Z,15.30
2022-09-16T22:16:39.652Z,15.20
2022-09-16T22:19:14.373Z,15.10
2022-09-16T22:21:43.084Z,14.90
2022-09-16T22:24:10.952Z,14.90
2022-09-16T22:26:38.820Z,14.90
2022-09-16T22:29:06.560Z,15.00
2022-09-16T22:31:36.098Z,15.00
2022-09-16T22:34:03.580Z,14.90
2022-09-16T22:36:34.152Z,14.90
2022-09-16T22:39:05.337Z,14.80
2022-09-16T22:41:33.377Z,14.90
2022-09-16T22:44:00.750Z,14.80
2022-09-16T22:46:34.496Z,14.80
2022-09-16T22:49:01.844Z,14.90
2022-09-16T22:51:29.442Z,14.80
2022-09-16T22:53:56.402Z,14.70
2022-09-16T22:56:25.865Z,14.70
2022-09-16T22:58:56.929Z,14.60
2022-09-16T23:01:27.386Z,14.70
2022-09-16T23:03:56.752Z,14.70
2022-09-16T23:06:25.125Z,14.70
2022-09-16T23:08:52.790Z,14.80
2022-09-16T23:11:24.792Z,14.80
2022-09-16T23:13:54.198Z,14.80
2022-09-16T23:16:27.090Z,14.90
2022-09-16T23:18:59.761Z,14.90
2022-09-16T23:21:27.521Z,14.90
2022-09-16T23:23:56.223Z,14.90
2022-09-16T23:26:29.982Z,14.90
2022-09-16T23:28:59.153Z,14.90
2022-09-16T23:31:28.980Z,15.10
2022-09-16T23:33:56.337Z,15.10
2022-09-16T23:36:25.191Z,15.20
2022-09-16T23:38:52.960Z,15.20
2022-09-16T23:41:21.947Z,15.20
2022-09-16T23:43:50.370Z,15.20
2022-09-16T23:46:19.415Z,15.30
2022-09-16T23:48:46.983Z,15.30
2022-09-16T23:51:14.343Z,15.30
2022-09-16T23:53:45.340Z,15.30
2022-09-16T23:56:14.658Z,15.30
2022-09-16T23:58:42.500Z,15.40
